Time;durP1;ratioP1;P1;durP2;ratioP2;P2;SDS_P1;SDS_P2;PMS_P1;PMS_P2;Temp;Humidity;BMP_temperature;BMP_pressure;BME280_temperature;BME280_humidity;BME280_pressure;Samples;Min_cycle;Max_cycle;Signal;HPM_P1;HPM_P2
2022/10/13 00:00:39;;;;;;;25.77;16.73;;;;;;;;;;5025708;28;20057;-80
2022/10/13 00:03:07;;;;;;;25.98;18.00;;;;;;;;;;5025989;28;20049;-80
2022/10/13 00:05:33;;;;;;;26.80;17.73;;;;;;;;;;5017341;28;20083;-80
2022/10/13 00:08:00;;;;;;;29.65;17.63;;;;;;;;;;5019065;28;20053;-79
2022/10/13 00:10:26;;;;;;;24.83;17.60;;;;;;;;;;5018800;28;20095;-80
2022/10/13 00:12:52;;;;;;;23.95;17.92;;;;;;;;;;5021762;28;20049;-80
2022/10/13 00:15:19;;;;;;;24.60;16.88;;;;;;;;;;5022185;28;20042;-80
2022/10/13 00:17:45;;;;;;;24.73;17.13;;;;;;;;;;5020229;28;20061;-80
2022/10/13 00:20:11;;;;;;;25.30;17.65;;;;;;;;;;5021252;28;20073;-80
2022/10/13 00:22:37;;;;;;;26.52;17.75;;;;;;;;;;5019640;28;20200;-80
2022/10/13 00:25:03;;;;;;;25.77;17.98;;;;;;;;;;5029208;28;20061;-80
2022/10/13 00:27:29;;;;;;;21.77;16.92;;;;;;;;;;5018658;28;20072;-80
2022/10/13 00:29:56;;;;;;;28.05;17.83;;;;;;;;;;5028777;28;20045;-80
2022/10/13 00:32:23;;;;;;;24.42;16.83;;;;;;;;;;5023599;28;20049;-80
2022/10/13 00:34:49;;;;;;;26.58;16.35;;;;;;;;;;5028507;28;20042;-79
2022/10/13 00:37:15;;;;;;;22.98;17.33;;;;;;;;;;5025006;28;20053;-79
2022/10/13 00:39:50;;;;;;;25.67;17.48;;;;;;;;;;5023699;28;20046;-80
2022/10/13 00:42:19;;;;;;;23.17;17.05;;;;;;;;;;5028051;28;20485;-80
2022/10/13 00:44:58;;;;;;;23.98;15.82;;;;;;;;;;5024986;28;20547;-80
2022/10/13 00:47:24;;;;;;;23.85;16.58;;;;;;;;;;5027733;28;20057;-80
2022/10/13 00:49:51;;;;;;;23.10;16.60;;;;;;;;;;5028028;28;20128;-80
2022/10/13 00:52:19;;;;;;;24.73;16.42;;;;;;;;;;5020837;28;20038;-80
2022/10/13 00:54:46;;;;;;;23.52;16.52;;;;;;;;;;5018605;28;20538;-80
2022/10/13 00:57:12;;;;;;;22.00;15.32;;;;;;;;;;5026354;28;20092;-81
2022/10/13 00:59:39;;;;;;;25.13;15.68;;;;;;;;;;5023738;28;20053;-80
2022/10/13 01:02:05;;;;;;;24.75;16.85;;;;;;;;;;5021875;28;20092;-80
2022/10/13 01:04:36;;;;;;;21.70;15.48;;;;;;;;;;5024877;28;20049;-80
2022/10/13 01:07:02;;;;;;;24.10;15.13;;;;;;;;;;5022088;28;20072;-80
2022/10/13 01:09:35;;;;;;;25.45;15.88;;;;;;;;;;5018274;28;20059;-80
2022/10/13 01:12:19;;;;;;;19.10;14.10;;;;;;;;;;5021205;28;20057;-80
2022/10/13 01:14:48;;;;;;;20.13;14.45;;;;;;;;;;5023395;28;20068;-80
2022/10/13 01:17:17;;;;;;;23.48;15.60;;;;;;;;;;5032487;28;20041;-80
2022/10/13 01:20:05;;;;;;;23.65;15.85;;;;;;;;;;5028845;28;20081;-80
2022/10/13 01:22:34;;;;;;;21.33;15.52;;;;;;;;;;5020004;28;20084;-80
2022/10/13 01:25:26;;;;;;;19.92;15.23;;;;;;;;;;5031247;28;20041;-80
2022/10/13 01:28:04;;;;;;;21.88;16.70;;;;;;;;;;5025356;28;20106;-80
2022/10/13 01:30:33;;;;;;;20.33;15.07;;;;;;;;;;5030209;28;20073;-81
2022/10/13 01:33:05;;;;;;;23.00;16.27;;;;;;;;;;5030643;28;20056;-80
2022/10/13 01:35:44;;;;;;;24.83;16.58;;;;;;;;;;5019727;28;20497;-80
2022/10/13 01:38:40;;;;;;;22.58;15.75;;;;;;;;;;5027006;28;20038;-80
2022/10/13 01:41:09;;;;;;;21.33;15.68;;;;;;;;;;4948758;28;20219;-80
2022/10/13 01:43:37;;;;;;;20.75;15.02;;;;;;;;;;5034391;28;20072;-81
2022/10/13 01:46:24;;;;;;;21.00;15.88;;;;;;;;;;5036881;28;20037;-81
2022/10/13 01:48:54;;;;;;;22.70;16.40;;;;;;;;;;5027997;28;20045;-80
2022/10/13 01:51:22;;;;;;;20.92;16.80;;;;;;;;;;5031964;28;20045;-80
2022/10/13 01:53:48;;;;;;;22.83;17.10;;;;;;;;;;5030382;28;20053;-80
2022/10/13 01:56:14;;;;;;;22.20;17.02;;;;;;;;;;5025877;28;20401;-79
2022/10/13 01:58:40;;;;;;;24.98;18.02;;;;;;;;;;5022863;28;20504;-79
2022/10/13 02:01:06;;;;;;;26.45;17.08;;;;;;;;;;5029200;28;20431;-79
2022/10/13 02:03:37;;;;;;;22.33;18.77;;;;;;;;;;5023332;28;21570;-80
2022/10/13 02:06:24;;;;;;;24.88;18.73;;;;;;;;;;5026294;28;20413;-79
2022/10/13 02:08:50;;;;;;;23.42;17.77;;;;;;;;;;5023156;28;20107;-80
2022/10/13 02:11:21;;;;;;;22.98;18.05;;;;;;;;;;5022686;28;20053;-80
2022/10/13 02:13:52;;;;;;;27.63;19.13;;;;;;;;;;5022814;28;20081;-80
2022/10/13 02:16:20;;;;;;;23.73;18.58;;;;;;;;;;5019367;28;20060;-79
2022/10/13 02:18:49;;;;;;;27.40;19.50;;;;;;;;;;5026718;28;20037;-79
2022/10/13 02:21:16;;;;;;;21.98;18.00;;;;;;;;;;5023332;28;20109;-79
2022/10/13 02:23:42;;;;;;;25.70;17.85;;;;;;;;;;5023007;28;20049;-79
2022/10/13 02:26:09;;;;;;;22.60;17.75;;;;;;;;;;5023569;28;20056;-79
2022/10/13 02:28:36;;;;;;;22.02;17.75;;;;;;;;;;5022089;28;20124;-79
2022/10/13 02:31:02;;;;;;;27.35;20.08;;;;;;;;;;5022566;28;20037;-79
2022/10/13 02:33:28;;;;;;;25.17;17.98;;;;;;;;;;5024566;28;20041;-80
2022/10/13 02:35:54;;;;;;;21.95;17.90;;;;;;;;;;5029028;28;20060;-79
2022/10/13 02:38:20;;;;;;;23.50;16.98;;;;;;;;;;5025373;28;20060;-80
2022/10/13 02:40:46;;;;;;;23.50;17.33;;;;;;;;;;5029858;28;20045;-80
2022/10/13 02:43:12;;;;;;;22.70;17.20;;;;;;;;;;5018157;28;20048;-80
2022/10/13 02:45:38;;;;;;;23.23;16.33;;;;;;;;;;5028577;28;20037;-80
2022/10/13 02:48:04;;;;;;;23.52;15.48;;;;;;;;;;5026039;28;20638;-79
2022/10/13 02:50:31;;;;;;;21.45;15.55;;;;;;;;;;5034013;28;20037;-80
2022/10/13 02:52:57;;;;;;;25.52;16.90;;;;;;;;;;5026092;28;20045;-80
2022/10/13 02:55:23;;;;;;;19.63;15.70;;;;;;;;;;5030916;28;20436;-80
2022/10/13 02:57:49;;;;;;;27.55;16.33;;;;;;;;;;5028597;28;20058;-80
2022/10/13 03:00:15;;;;;;;21.15;16.00;;;;;;;;;;5022180;28;20072;-80
2022/10/13 03:02:41;;;;;;;23.70;17.20;;;;;;;;;;5027617;28;20041;-79
2022/10/13 03:05:08;;;;;;;23.33;17.73;;;;;;;;;;5027901;28;20057;-79
2022/10/13 03:07:34;;;;;;;26.70;16.88;;;;;;;;;;5020554;28;20038;-80
2022/10/13 03:10:00;;;;;;;24.63;17.60;;;;;;;;;;5017387;28;20147;-80
2022/10/13 03:12:26;;;;;;;23.33;17.33;;;;;;;;;;5020802;28;20493;-80
2022/10/13 03:14:52;;;;;;;25.27;17.52;;;;;;;;;;5025050;28;20083;-79
2022/10/13 03:17:18;;;;;;;25.15;17.95;;;;;;;;;;5026555;28;20077;-79
2022/10/13 03:19:44;;;;;;;23.85;17.42;;;;;;;;;;5028127;28;20481;-79
2022/10/13 03:22:13;;;;;;;22.80;17.50;;;;;;;;;;5025587;28;20448;-79
2022/10/13 03:24:39;;;;;;;24.50;18.27;;;;;;;;;;5030233;28;20108;-79
2022/10/13 03:27:05;;;;;;;26.88;18.33;;;;;;;;;;5029146;28;20473;-79
2022/10/13 03:29:32;;;;;;;23.90;17.50;;;;;;;;;;5029769;28;20056;-79
2022/10/13 03:31:58;;;;;;;23.20;17.20;;;;;;;;;;5027833;28;20049;-79
2022/10/13 03:34:24;;;;;;;24.50;18.25;;;;;;;;;;5022495;28;20129;-79
2022/10/13 03:36:50;;;;;;;26.02;18.70;;;;;;;;;;5029774;28;20124;-79
2022/10/13 03:39:16;;;;;;;22.95;17.63;;;;;;;;;;5022822;28;20069;-79
2022/10/13 03:41:42;;;;;;;25.30;17.75;;;;;;;;;;5026577;28;20501;-79
2022/10/13 03:44:11;;;;;;;25.50;17.63;;;;;;;;;;5027882;28;20060;-79
2022/10/13 03:46:37;;;;;;;23.70;18.00;;;;;;;;;;5019546;28;20037;-79
2022/10/13 03:49:03;;;;;;;23.80;17.90;;;;;;;;;;5027647;28;20551;-79
2022/10/13 03:51:29;;;;;;;22.35;17.33;;;;;;;;;;5030040;28;20037;-79
2022/10/13 03:53:55;;;;;;;23.83;17.77;;;;;;;;;;5022423;28;20046;-79
2022/10/13 03:56:23;;;;;;;23.50;17.40;;;;;;;;;;5025926;28;20525;-79
2022/10/13 03:58:53;;;;;;;23.33;16.15;;;;;;;;;;5027525;28;20049;-79
2022/10/13 04:01:23;;;;;;;21.45;16.75;;;;;;;;;;5025894;28;20074;-79
2022/10/13 04:03:49;;;;;;;20.85;16.60;;;;;;;;;;5020167;28;20095;-79
2022/10/13 04:06:16;;;;;;;23.40;17.30;;;;;;;;;;5028120;28;20041;-79
2022/10/13 04:08:42;;;;;;;23.73;17.08;;;;;;;;;;5026529;28;20053;-79
2022/10/13 04:11:11;;;;;;;21.58;17.20;;;;;;;;;;5032582;28;20041;-79
2022/10/13 04:13:37;;;;;;;25.15;17.70;;;;;;;;;;5024203;28;20038;-79
2022/10/13 04:16:04;;;;;;;23.02;16.92;;;;;;;;;;5025740;28;20378;-79
2022/10/13 04:18:30;;;;;;;27.50;18.85;;;;;;;;;;5030402;28;20116;-79
2022/10/13 04:20:56;;;;;;;26.08;19.25;;;;;;;;;;5031183;28;20041;-79
2022/10/13 04:23:22;;;;;;;26.65;19.95;;;;;;;;;;5020004;28;20073;-79
2022/10/13 04:25:48;;;;;;;23.27;19.35;;;;;;;;;;5028638;28;20077;-79
2022/10/13 04:28:14;;;;;;;28.02;21.27;;;;;;;;;;5030037;28;20154;-79
2022/10/13 04:30:41;;;;;;;27.95;21.17;;;;;;;;;;5029141;28;20052;-79
2022/10/13 04:33:07;;;;;;;26.63;20.75;;;;;;;;;;5024064;28;20072;-79
2022/10/13 04:35:33;;;;;;;29.30;20.23;;;;;;;;;;5024761;28;20045;-79
2022/10/13 04:37:59;;;;;;;28.48;21.67;;;;;;;;;;5027108;28;20057;-80
2022/10/13 04:40:26;;;;;;;26.17;20.92;;;;;;;;;;5024035;28;20049;-79
2022/10/13 04:42:52;;;;;;;26.00;20.75;;;;;;;;;;5023997;28;20091;-79
2022/10/13 04:45:18;;;;;;;27.70;20.90;;;;;;;;;;5024024;28;20052;-80
2022/10/13 04:47:44;;;;;;;25.20;19.17;;;;;;;;;;5024423;28;20488;-79
2022/10/13 04:50:10;;;;;;;22.58;18.73;;;;;;;;;;5028949;28;20106;-80
2022/10/13 04:52:36;;;;;;;25.15;19.33;;;;;;;;;;5024777;28;20049;-79
2022/10/13 04:55:02;;;;;;;25.02;18.35;;;;;;;;;;5026473;28;20052;-79
2022/10/13 04:57:29;;;;;;;22.17;18.00;;;;;;;;;;5025877;28;20481;-79
2022/10/13 04:59:55;;;;;;;28.02;18.92;;;;;;;;;;5026826;28;20103;-79
2022/10/13 05:02:21;;;;;;;26.15;19.48;;;;;;;;;;5020523;28;20110;-79
2022/10/13 05:04:50;;;;;;;24.05;18.75;;;;;;;;;;5023655;28;20045;-79
2022/10/13 05:07:16;;;;;;;24.55;17.17;;;;;;;;;;5024088;28;20074;-79
2022/10/13 05:09:42;;;;;;;23.20;17.00;;;;;;;;;;5019423;28;20054;-79
2022/10/13 05:12:08;;;;;;;21.67;15.23;;;;;;;;;;5025726;28;20068;-79
2022/10/13 05:14:34;;;;;;;18.52;13.85;;;;;;;;;;5020562;28;20049;-79
2022/10/13 05:17:09;;;;;;;15.73;12.02;;;;;;;;;;5028592;28;20050;-78
2022/10/13 05:19:35;;;;;;;16.90;11.65;;;;;;;;;;5021578;28;20049;-79
2022/10/13 05:22:01;;;;;;;21.50;14.15;;;;;;;;;;5024262;28;20053;-79
2022/10/13 05:24:37;;;;;;;21.35;15.13;;;;;;;;;;5039194;28;20041;-80
2022/10/13 05:27:11;;;;;;;17.17;13.15;;;;;;;;;;5020902;28;20045;-79
2022/10/13 05:29:37;;;;;;;17.65;13.07;;;;;;;;;;5025388;28;20063;-79
2022/10/13 05:32:04;;;;;;;19.35;13.65;;;;;;;;;;5023937;28;20041;-79
2022/10/13 05:34:31;;;;;;;23.10;15.02;;;;;;;;;;5020377;28;20124;-80
2022/10/13 05:36:58;;;;;;;20.95;15.60;;;;;;;;;;5024475;28;20049;-79
2022/10/13 05:39:24;;;;;;;19.85;14.70;;;;;;;;;;5024410;28;20077;-80
2022/10/13 05:41:50;;;;;;;26.65;17.42;;;;;;;;;;5028028;28;20045;-79
2022/10/13 05:44:16;;;;;;;22.67;17.58;;;;;;;;;;5027624;28;20057;-79
2022/10/13 05:46:42;;;;;;;25.17;18.13;;;;;;;;;;5030479;28;20045;-80
2022/10/13 05:49:15;;;;;;;21.50;17.88;;;;;;;;;;5031566;28;20516;-79
2022/10/13 05:51:43;;;;;;;24.55;18.70;;;;;;;;;;5028644;28;20049;-79
2022/10/13 05:54:13;;;;;;;23.63;18.52;;;;;;;;;;5021606;28;20060;-79
2022/10/13 05:56:42;;;;;;;24.38;18.98;;;;;;;;;;5024099;28;20060;-79
2022/10/13 05:59:10;;;;;;;29.27;19.83;;;;;;;;;;5023728;28;20049;-79
2022/10/13 06:01:37;;;;;;;25.80;19.45;;;;;;;;;;5024854;28;20079;-79
2022/10/13 06:04:05;;;;;;;28.40;20.08;;;;;;;;;;5027650;28;20042;-79
2022/10/13 06:06:31;;;;;;;27.88;19.77;;;;;;;;;;5023527;28;20099;-79
2022/10/13 06:08:57;;;;;;;26.25;19.45;;;;;;;;;;5018478;28;20068;-79
2022/10/13 06:11:23;;;;;;;28.42;19.92;;;;;;;;;;5023111;28;20049;-79
2022/10/13 06:13:49;;;;;;;26.75;19.52;;;;;;;;;;5023918;28;20473;-79
2022/10/13 06:16:15;;;;;;;29.15;21.13;;;;;;;;;;5031087;28;20041;-79
2022/10/13 06:18:41;;;;;;;27.90;20.38;;;;;;;;;;5026369;28;20052;-79
2022/10/13 06:21:07;;;;;;;29.45;20.35;;;;;;;;;;5022801;28;20393;-79
2022/10/13 06:23:33;;;;;;;28.67;21.88;;;;;;;;;;5022216;28;20087;-79
2022/10/13 06:25:59;;;;;;;33.55;22.25;;;;;;;;;;5027378;28;20099;-79
2022/10/13 06:28:26;;;;;;;31.10;23.60;;;;;;;;;;5021139;28;20473;-79
2022/10/13 06:30:56;;;;;;;33.03;23.73;;;;;;;;;;5019642;28;20068;-79
2022/10/13 06:33:25;;;;;;;33.60;24.77;;;;;;;;;;5017164;28;20057;-79
2022/10/13 06:35:52;;;;;;;30.55;23.73;;;;;;;;;;5023176;28;20045;-79
2022/10/13 06:38:18;;;;;;;35.88;24.27;;;;;;;;;;5016762;28;20077;-79
2022/10/13 06:40:44;;;;;;;31.70;23.30;;;;;;;;;;5022153;28;20566;-80
2022/10/13 06:43:11;;;;;;;33.13;24.25;;;;;;;;;;5025238;28;20224;-79
2022/10/13 06:45:37;;;;;;;34.85;25.17;;;;;;;;;;5027743;28;20107;-79
2022/10/13 06:48:03;;;;;;;33.13;25.38;;;;;;;;;;5027981;28;20064;-79
2022/10/13 06:50:31;;;;;;;34.25;25.35;;;;;;;;;;5030112;28;20544;-80
2022/10/13 06:52:57;;;;;;;37.40;25.15;;;;;;;;;;5031272;28;20091;-79
2022/10/13 06:55:23;;;;;;;32.95;25.08;;;;;;;;;;5026291;28;20124;-79
2022/10/13 06:57:49;;;;;;;37.25;26.33;;;;;;;;;;5027748;28;20050;-79
2022/10/13 07:00:15;;;;;;;37.15;26.48;;;;;;;;;;5024656;28;20042;-81
2022/10/13 07:02:41;;;;;;;38.15;27.95;;;;;;;;;;5030797;28;20037;-80
2022/10/13 07:05:07;;;;;;;35.83;27.50;;;;;;;;;;5030252;28;20056;-80
2022/10/13 07:07:33;;;;;;;38.35;27.80;;;;;;;;;;5027461;28;20484;-80
2022/10/13 07:09:59;;;;;;;34.33;27.83;;;;;;;;;;5028972;28;20514;-81
2022/10/13 07:12:25;;;;;;;35.15;27.20;;;;;;;;;;5026464;28;20045;-80
2022/10/13 07:14:51;;;;;;;34.38;27.42;;;;;;;;;;5026809;28;20038;-80
2022/10/13 07:17:17;;;;;;;38.67;27.90;;;;;;;;;;5027866;28;20037;-80
2022/10/13 07:19:46;;;;;;;38.92;27.83;;;;;;;;;;5030349;28;20041;-80
2022/10/13 07:22:12;;;;;;;35.42;26.65;;;;;;;;;;5025136;28;20042;-79
2022/10/13 07:24:38;;;;;;;38.45;27.55;;;;;;;;;;5022151;28;20041;-80
2022/10/13 07:27:04;;;;;;;38.08;27.75;;;;;;;;;;5030812;28;20388;-79
2022/10/13 07:29:30;;;;;;;40.90;27.98;;;;;;;;;;5025343;28;20041;-80
2022/10/13 07:31:56;;;;;;;38.97;27.23;;;;;;;;;;5028063;28;20370;-80
2022/10/13 07:34:22;;;;;;;35.75;27.02;;;;;;;;;;5030887;28;20497;-80
2022/10/13 07:36:48;;;;;;;36.40;26.98;;;;;;;;;;5031449;28;20041;-81
2022/10/13 07:39:15;;;;;;;36.40;26.95;;;;;;;;;;5027627;28;20048;-80
2022/10/13 07:41:40;;;;;;;36.58;25.95;;;;;;;;;;5029842;28;20073;-80
2022/10/13 07:44:07;;;;;;;32.80;24.55;;;;;;;;;;5030280;28;20083;-82
2022/10/13 07:46:33;;;;;;;36.72;25.38;;;;;;;;;;5022977;28;20137;-80
2022/10/13 07:48:59;;;;;;;33.92;25.17;;;;;;;;;;5027445;28;20479;-80
2022/10/13 07:51:25;;;;;;;33.60;24.02;;;;;;;;;;5020435;28;20047;-80
2022/10/13 07:53:51;;;;;;;31.60;23.38;;;;;;;;;;5023366;28;20073;-80
2022/10/13 07:56:17;;;;;;;31.13;23.63;;;;;;;;;;5025252;28;20413;-79
2022/10/13 07:58:45;;;;;;;31.15;23.52;;;;;;;;;;5028532;28;20049;-79
2022/10/13 08:01:11;;;;;;;29.58;21.90;;;;;;;;;;5026935;28;20041;-80
2022/10/13 08:03:38;;;;;;;27.90;23.02;;;;;;;;;;5023117;28;20045;-81
2022/10/13 08:06:05;;;;;;;35.03;22.58;;;;;;;;;;5029983;28;20132;-82
2022/10/13 08:08:31;;;;;;;27.48;21.38;;;;;;;;;;5027222;28;20041;-80
2022/10/13 08:11:04;;;;;;;24.65;20.50;;;;;;;;;;5028099;28;20049;-79
2022/10/13 08:13:30;;;;;;;30.98;20.67;;;;;;;;;;5023119;28;20037;-79
2022/10/13 08:15:59;;;;;;;27.98;20.90;;;;;;;;;;5024614;28;20049;-79
2022/10/13 08:18:25;;;;;;;26.95;20.13;;;;;;;;;;5030873;28;20085;-80
2022/10/13 08:20:51;;;;;;;26.92;20.25;;;;;;;;;;5029540;28;20064;-77
2022/10/13 08:23:17;;;;;;;26.17;20.23;;;;;;;;;;5026109;28;20053;-79
2022/10/13 08:25:43;;;;;;;24.85;19.38;;;;;;;;;;5023298;28;20087;-79
2022/10/13 08:28:16;;;;;;;24.80;19.23;;;;;;;;;;5022943;28;20606;-79
2022/10/13 08:30:42;;;;;;;28.95;19.45;;;;;;;;;;5028362;28;20498;-79
2022/10/13 08:33:08;;;;;;;26.73;20.17;;;;;;;;;;5028288;28;20120;-79
2022/10/13 08:35:34;;;;;;;25.15;18.60;;;;;;;;;;5022857;28;20131;-80
2022/10/13 08:38:00;;;;;;;23.55;18.38;;;;;;;;;;5021724;28;20371;-80
2022/10/13 08:40:26;;;;;;;23.08;17.80;;;;;;;;;;5019015;28;20046;-80
2022/10/13 08:42:52;;;;;;;22.80;15.70;;;;;;;;;;5022176;28;20092;-79
2022/10/13 08:45:21;;;;;;;19.33;15.98;;;;;;;;;;5024000;28;20076;-79
2022/10/13 08:47:56;;;;;;;21.38;16.02;;;;;;;;;;5023174;28;20045;-79
2022/10/13 08:50:24;;;;;;;21.00;14.20;;;;;;;;;;5015214;28;20213;-79
2022/10/13 08:52:56;;;;;;;19.80;14.43;;;;;;;;;;5031541;28;20046;-79
2022/10/13 08:55:29;;;;;;;21.10;14.93;;;;;;;;;;5016354;28;20560;-79
2022/10/13 08:57:55;;;;;;;21.40;14.75;;;;;;;;;;5026786;28;20065;-79
2022/10/13 09:00:21;;;;;;;22.45;16.45;;;;;;;;;;5023185;28;20046;-79
2022/10/13 09:02:48;;;;;;;17.52;14.77;;;;;;;;;;5024807;28;20041;-81
2022/10/13 09:05:18;;;;;;;22.70;15.48;;;;;;;;;;5029048;28;20049;-79
2022/10/13 09:07:45;;;;;;;18.83;14.90;;;;;;;;;;5016443;28;20401;-79
2022/10/13 09:10:13;;;;;;;22.10;16.08;;;;;;;;;;5016237;28;20052;-79
2022/10/13 09:12:39;;;;;;;19.92;15.88;;;;;;;;;;5028563;28;20197;-79
2022/10/13 09:15:08;;;;;;;22.30;15.98;;;;;;;;;;5032033;28;20160;-79
2022/10/13 09:17:38;;;;;;;23.25;15.77;;;;;;;;;;5025226;28;20046;-79
2022/10/13 09:20:15;;;;;;;19.52;15.38;;;;;;;;;;5021909;28;20405;-80
2022/10/13 09:22:42;;;;;;;22.35;15.48;;;;;;;;;;5027425;28;20073;-80
2022/10/13 09:25:08;;;;;;;21.45;16.40;;;;;;;;;;5027409;28;20051;-80
2022/10/13 09:27:51;;;;;;;20.38;16.42;;;;;;;;;;5015279;28;20045;-80
2022/10/13 09:30:24;;;;;;;25.02;16.50;;;;;;;;;;5021874;28;20046;-79
2022/10/13 09:32:50;;;;;;;;;;;;;;;;;;5029791;28;20049;-79
2022/10/13 09:35:23;;;;;;;18.63;16.10;;;;;;;;;;5028961;28;19921;-79
2022/10/13 09:38:02;;;;;;;21.40;16.17;;;;;;;;;;5031630;28;20096;-80
2022/10/13 09:40:30;;;;;;;21.58;16.33;;;;;;;;;;5036801;28;20322;-81
2022/10/13 09:42:57;;;;;;;24.95;17.83;;;;;;;;;;5035385;28;20041;-80
2022/10/13 09:45:24;;;;;;;23.70;16.33;;;;;;;;;;5039218;28;20144;-80
2022/10/13 09:47:55;;;;;;;22.65;16.08;;;;;;;;;;5028543;28;20045;-80
2022/10/13 09:50:31;;;;;;;21.63;16.63;;;;;;;;;;5022311;28;20045;-80
2022/10/13 09:53:19;;;;;;;20.17;15.27;;;;;;;;;;5031191;28;20053;-80
2022/10/13 09:55:48;;;;;;;20.83;14.95;;;;;;;;;;5032601;28;20054;-81
2022/10/13 09:58:25;;;;;;;20.25;16.17;;;;;;;;;;5020203;28;20046;-83
2022/10/13 10:00:51;;;;;;;16.33;13.57;;;;;;;;;;5019323;28;20044;-80
2022/10/13 10:03:27;;;;;;;18.35;12.35;;;;;;;;;;5026966;28;20559;-80
2022/10/13 10:05:57;;;;;;;14.57;11.27;;;;;;;;;;5016855;28;20460;-80
2022/10/13 10:08:29;;;;;;;14.95;10.77;;;;;;;;;;5027457;28;20041;-80
2022/10/13 10:10:55;;;;;;;11.77;7.63;;;;;;;;;;5032808;28;20082;-80
2022/10/13 10:13:24;;;;;;;16.63;5.78;;;;;;;;;;5031733;28;20041;-79
2022/10/13 10:16:09;;;;;;;11.48;4.10;;;;;;;;;;5021881;28;20033;-79
2022/10/13 10:18:58;;;;;;;10.80;3.60;;;;;;;;;;5027891;28;20056;-79
2022/10/13 10:21:35;;;;;;;5.72;3.33;;;;;;;;;;5012625;28;20133;-80
2022/10/13 10:24:19;;;;;;;7.78;3.42;;;;;;;;;;5030139;28;20461;-79
2022/10/13 10:26:57;;;;;;;7.88;3.03;;;;;;;;;;5032308;28;20041;-80
2022/10/13 10:29:25;;;;;;;7.00;3.00;;;;;;;;;;5027925;28;20072;-80
2022/10/13 10:32:01;;;;;;;5.40;2.60;;;;;;;;;;5031064;28;20060;-79
2022/10/13 10:34:33;;;;;;;4.70;3.15;;;;;;;;;;5027842;28;20182;-79
2022/10/13 10:37:13;;;;;;;9.32;2.88;;;;;;;;;;5034423;28;20369;-79
2022/10/13 10:39:56;;;;;;;6.97;2.80;;;;;;;;;;5025784;28;20037;-80
2022/10/13 10:42:22;;;;;;;9.40;3.22;;;;;;;;;;5031559;28;20208;-79
2022/10/13 10:44:49;;;;;;;4.57;2.50;;;;;;;;;;5021024;28;20492;-80
2022/10/13 10:47:20;;;;;;;7.88;2.65;;;;;;;;;;5026027;28;20069;-79
2022/10/13 10:49:47;;;;;;;7.07;3.33;;;;;;;;;;5030436;28;20048;-84
2022/10/13 10:52:20;;;;;;;6.28;2.45;;;;;;;;;;5029956;28;20045;-84
2022/10/13 10:54:49;;;;;;;5.93;2.92;;;;;;;;;;5032752;28;20124;-80
2022/10/13 10:57:15;;;;;;;6.32;2.40;;;;;;;;;;5022942;28;20049;-80
2022/10/13 10:59:49;;;;;;;7.75;2.60;;;;;;;;;;5022888;28;20129;-80
2022/10/13 11:02:24;;;;;;;4.47;2.70;;;;;;;;;;5040086;28;20033;-81
2022/10/13 11:04:52;;;;;;;5.97;2.65;;;;;;;;;;5026558;28;20037;-80
2022/10/13 11:07:24;;;;;;;7.68;2.78;;;;;;;;;;5017647;28;20077;-82
2022/10/13 11:09:55;;;;;;;8.48;2.97;;;;;;;;;;5026716;28;20037;-83
2022/10/13 11:12:22;;;;;;;5.78;2.30;;;;;;;;;;5028153;28;20405;-80
2022/10/13 11:15:02;;;;;;;7.95;2.95;;;;;;;;;;5030856;28;20397;-81
2022/10/13 11:17:31;;;;;;;6.45;2.72;;;;;;;;;;5022972;28;20061;-80
2022/10/13 11:19:58;;;;;;;8.48;2.75;;;;;;;;;;5028276;28;20034;-80
2022/10/13 11:22:28;;;;;;;9.60;2.85;;;;;;;;;;5030593;28;20486;-80
2022/10/13 11:24:55;;;;;;;5.97;2.53;;;;;;;;;;5026003;28;20053;-79
2022/10/13 11:27:39;;;;;;;9.00;2.63;;;;;;;;;;5029840;28;20096;-79
2022/10/13 11:30:05;;;;;;;5.88;2.50;;;;;;;;;;5027565;28;20058;-79
2022/10/13 11:35:12;;;;;;;7.50;2.90;;;;;;;;;;5028289;28;20053;-79
2022/10/13 11:37:56;;;;;;;5.78;2.35;;;;;;;;;;5032152;28;20041;-79
2022/10/13 11:40:45;;;;;;;6.63;2.35;;;;;;;;;;5031136;28;20399;-80
2022/10/13 11:43:32;;;;;;;6.13;2.33;;;;;;;;;;5013252;28;20437;-79
2022/10/13 11:46:04;;;;;;;6.60;2.58;;;;;;;;;;5016650;28;20045;-80
2022/10/13 11:48:48;;;;;;;6.63;2.85;;;;;;;;;;5013746;28;20092;-79
2022/10/13 11:51:22;;;;;;;4.90;2.55;;;;;;;;;;5031880;28;20120;-79
2022/10/13 11:53:58;;;;;;;6.47;2.95;;;;;;;;;;5028239;28;20068;-79
2022/10/13 11:56:47;;;;;;;6.97;2.60;;;;;;;;;;5029913;28;20050;-79
2022/10/13 11:59:22;;;;;;;4.88;2.70;;;;;;;;;;5023086;28;20133;-80
2022/10/13 12:01:53;;;;;;;4.63;2.58;;;;;;;;;;5013148;28;20099;-79
2022/10/13 12:04:21;;;;;;;3.88;2.67;;;;;;;;;;5012916;28;20092;-79
2022/10/13 12:06:53;;;;;;;7.05;3.22;;;;;;;;;;5031133;28;20038;-79
2022/10/13 12:09:20;;;;;;;5.28;2.38;;;;;;;;;;5022587;28;20057;-79
2022/10/13 12:11:46;;;;;;;7.90;2.85;;;;;;;;;;5025977;28;20068;-79
2022/10/13 12:14:23;;;;;;;5.47;2.95;;;;;;;;;;5030797;28;20046;-80
2022/10/13 12:16:56;;;;;;;5.93;2.50;;;;;;;;;;5020729;28;20069;-79
2022/10/13 12:19:26;;;;;;;5.10;2.80;;;;;;;;;;5012559;28;20583;-80
2022/10/13 12:21:53;;;;;;;9.38;3.03;;;;;;;;;;5028540;28;20053;-80
2022/10/13 12:24:22;;;;;;;5.20;2.92;;;;;;;;;;5025521;28;20042;-79
2022/10/13 12:26:48;;;;;;;5.72;2.45;;;;;;;;;;5029316;28;20053;-79
2022/10/13 12:29:14;;;;;;;6.35;2.75;;;;;;;;;;5013489;28;20041;-80
2022/10/13 12:31:42;;;;;;;7.15;2.85;;;;;;;;;;5025502;28;20033;-80
2022/10/13 12:34:19;;;;;;;5.35;2.20;;;;;;;;;;5029181;28;20040;-80
2022/10/13 12:36:45;;;;;;;3.53;2.28;;;;;;;;;;5024871;28;20045;-79
2022/10/13 12:39:14;;;;;;;7.68;2.83;;;;;;;;;;5016571;28;20132;-80
2022/10/13 12:41:42;;;;;;;5.65;2.25;;;;;;;;;;5030186;28;20041;-80
2022/10/13 12:44:14;;;;;;;6.53;2.70;;;;;;;;;;5015898;28;20057;-80
2022/10/13 12:46:43;;;;;;;4.57;2.30;;;;;;;;;;5024313;28;20099;-80
2022/10/13 12:49:16;;;;;;;6.97;2.60;;;;;;;;;;5024804;28;20405;-81
2022/10/13 12:51:42;;;;;;;;;;;;;;;;;;5024444;28;20042;-80
2022/10/13 12:54:28;;;;;;;6.80;2.50;;;;;;;;;;5029229;28;19921;-81
2022/10/13 12:56:57;;;;;;;5.10;2.00;;;;;;;;;;5025287;28;20061;-81
2022/10/13 12:59:23;;;;;;;5.28;2.30;;;;;;;;;;5022869;28;20064;-81
2022/10/13 13:01:57;;;;;;;5.38;2.00;;;;;;;;;;5031415;28;20069;-80
2022/10/13 13:04:23;;;;;;;3.78;2.20;;;;;;;;;;5017009;28;20055;-80
2022/10/13 13:06:57;;;;;;;4.90;2.00;;;;;;;;;;5026303;28;20041;-81
2022/10/13 13:09:24;;;;;;;4.82;2.08;;;;;;;;;;5028193;28;20119;-80
2022/10/13 13:12:09;;;;;;;5.32;2.42;;;;;;;;;;5020533;28;20045;-80
2022/10/13 13:14:36;;;;;;;3.85;2.05;;;;;;;;;;5032785;28;20486;-80
2022/10/13 13:17:02;;;;;;;5.38;2.70;;;;;;;;;;5021063;28;20041;-81
2022/10/13 13:19:31;;;;;;;4.07;2.22;;;;;;;;;;5026913;28;20208;-80
2022/10/13 13:22:00;;;;;;;4.80;2.40;;;;;;;;;;5030242;28;20048;-80
2022/10/13 13:24:26;;;;;;;5.60;2.30;;;;;;;;;;5014217;28;20041;-81
2022/10/13 13:26:52;;;;;;;3.45;2.30;;;;;;;;;;5027777;28;20413;-82
2022/10/13 13:29:18;;;;;;;5.10;2.50;;;;;;;;;;5028462;28;20382;-81
2022/10/13 13:31:44;;;;;;;6.03;2.30;;;;;;;;;;5030086;28;20075;-80
2022/10/13 13:34:10;;;;;;;4.28;2.20;;;;;;;;;;5012190;28;20046;-80
2022/10/13 13:36:36;;;;;;;4.80;2.22;;;;;;;;;;5023444;28;20461;-80
2022/10/13 13:39:03;;;;;;;4.88;2.20;;;;;;;;;;5031213;28;20048;-81
2022/10/13 13:41:30;;;;;;;4.32;2.30;;;;;;;;;;5027956;28;20042;-80
2022/10/13 13:43:56;;;;;;;4.32;2.00;;;;;;;;;;5027691;28;20500;-80
2022/10/13 13:46:27;;;;;;;5.10;2.40;;;;;;;;;;5022946;28;20053;-80
2022/10/13 13:48:53;;;;;;;5.22;2.40;;;;;;;;;;5031949;28;20056;-80
2022/10/13 13:51:20;;;;;;;5.13;2.00;;;;;;;;;;5021725;28;20112;-81
2022/10/13 13:53:46;;;;;;;4.68;2.00;;;;;;;;;;5029901;28;20049;-80
2022/10/13 13:56:13;;;;;;;5.25;2.30;;;;;;;;;;5028370;28;20115;-80
2022/10/13 13:58:39;;;;;;;4.05;2.38;;;;;;;;;;5009518;28;20128;-80
2022/10/13 14:01:05;;;;;;;4.60;2.00;;;;;;;;;;5015587;28;20042;-79
2022/10/13 14:03:31;;;;;;;4.68;2.08;;;;;;;;;;5031188;28;20055;-80
2022/10/13 14:06:06;;;;;;;5.07;2.00;;;;;;;;;;5030031;28;20049;-81
2022/10/13 14:08:40;;;;;;;4.10;2.25;;;;;;;;;;5029837;28;20054;-81
2022/10/13 14:11:09;;;;;;;6.88;2.45;;;;;;;;;;5026490;28;20092;-81
2022/10/13 14:13:35;;;;;;;5.40;2.10;;;;;;;;;;5028020;28;20488;-81
2022/10/13 14:16:02;;;;;;;5.93;2.50;;;;;;;;;;5028336;28;20413;-81
2022/10/13 14:18:28;;;;;;;7.68;2.95;;;;;;;;;;5029794;28;20115;-81
2022/10/13 14:20:54;;;;;;;3.85;2.45;;;;;;;;;;5015833;28;20052;-82
2022/10/13 14:23:20;;;;;;;7.93;2.40;;;;;;;;;;5028362;28;20452;-80
2022/10/13 14:25:46;;;;;;;3.33;2.42;;;;;;;;;;5032642;28;20042;-81
2022/10/13 14:28:12;;;;;;;6.63;2.58;;;;;;;;;;5024425;28;20383;-80
2022/10/13 14:30:38;;;;;;;3.95;2.42;;;;;;;;;;5024452;28;20061;-81
2022/10/13 14:33:05;;;;;;;6.72;2.63;;;;;;;;;;5032697;28;20038;-81
2022/10/13 14:35:31;;;;;;;5.53;2.70;;;;;;;;;;5018122;28;20164;-79
2022/10/13 14:37:57;;;;;;;6.32;2.70;;;;;;;;;;5028362;28;20136;-80